Time;durP1;ratioP1;P1;durP2;ratioP2;P2;SDS_P1;SDS_P2;PMS_P1;PMS_P2;Temp;Humidity;BMP_temperature;BMP_pressure;BME280_temperature;BME280_humidity;BME280_pressure;Samples;Min_cycle;Max_cycle;Signal;HPM_P1;HPM_P2
2021/11/08 00:03:39;;;;;;;23.77;4.00;;;6.80;99.90;;;;;;12409641;28;20053;-36
2021/11/08 00:09:43;;;;;;;17.35;3.92;;;6.90;99.90;;;;;;12423998;28;20093;-42
2021/11/08 00:22:05;;;;;;;23.67;2.70;;;7.00;99.90;;;;;;12422789;28;20503;-37
2021/11/08 00:28:09;;;;;;;13.65;3.13;;;6.80;99.90;;;;;;12423740;28;20054;-37
2021/11/08 00:34:11;;;;;;;19.45;2.97;;;7.00;99.90;;;;;;12424444;28;20156;-37
2021/11/08 00:40:14;;;;;;;11.40;2.63;;;6.90;99.90;;;;;;12426137;28;20054;-37
2021/11/08 00:46:18;;;;;;;16.17;2.92;;;7.00;99.90;;;;;;12422926;28;20173;-38
2021/11/08 00:52:20;;;;;;;18.40;3.05;;;7.00;99.90;;;;;;12407407;28;20072;-37
2021/11/08 00:58:44;;;;;;;23.52;3.15;;;6.80;99.90;;;;;;12421205;28;20046;-41
2021/11/08 01:04:44;;;;;;;20.65;3.15;;;6.70;99.90;;;;;;12428623;28;20092;-38
2021/11/08 01:10:47;;;;;;;18.83;3.80;;;6.60;99.90;;;;;;12431598;28;20082;-41
2021/11/08 01:16:55;;;;;;;21.13;3.63;;;6.60;99.90;;;;;;12410032;28;20053;-37
2021/11/08 01:22:59;;;;;;;9.35;2.50;;;6.50;99.90;;;;;;12406373;28;20049;-37
2021/11/08 01:29:01;;;;;;;17.85;3.20;;;6.50;99.90;;;;;;12431679;28;20061;-38
2021/11/08 01:35:04;;;;;;;14.15;2.78;;;6.50;99.90;;;;;;12432793;28;20077;-41
2021/11/08 01:41:06;;;;;;;18.23;3.15;;;6.50;99.90;;;;;;12429896;28;20046;-38
2021/11/08 01:47:10;;;;;;;19.58;3.55;;;6.40;99.90;;;;;;12434364;28;20081;-42
2021/11/08 01:53:12;;;;;;;18.20;3.08;;;6.50;99.90;;;;;;12419316;28;20050;-41
2021/11/08 01:59:14;;;;;;;17.40;3.28;;;6.50;99.90;;;;;;12428253;28;20733;-38
2021/11/08 02:05:18;;;;;;;22.52;3.75;;;6.50;99.90;;;;;;12428302;28;20161;-41
2021/11/08 02:11:21;;;;;;;19.45;4.10;;;6.50;99.90;;;;;;12427019;28;21025;-38
2021/11/08 02:17:23;;;;;;;21.70;3.78;;;6.40;99.90;;;;;;12427566;28;20057;-41
2021/11/08 02:23:27;;;;;;;26.17;3.90;;;6.60;99.90;;;;;;12413158;28;20095;-38
2021/11/08 02:29:32;;;;;;;14.52;3.50;;;6.50;99.90;;;;;;12397149;28;20070;-37
2021/11/08 02:35:37;;;;;;;23.05;3.50;;;6.70;99.90;;;;;;12377600;28;20050;-42
2021/11/08 02:41:39;;;;;;;21.10;4.63;;;6.50;99.90;;;;;;12378074;28;20092;-42
2021/11/08 02:47:45;;;;;;;19.00;3.55;;;6.50;99.90;;;;;;12377966;28;20061;-37
2021/11/08 02:53:50;;;;;;;22.95;4.30;;;6.60;99.90;;;;;;12379527;28;20588;-37
2021/11/08 02:59:52;;;;;;;17.88;3.08;;;6.50;99.90;;;;;;12377355;28;20050;-41
2021/11/08 03:06:00;;;;;;;14.98;3.28;;;6.50;99.90;;;;;;12378153;28;20504;-37
2021/11/08 03:12:13;;;;;;;19.70;3.13;;;6.50;99.90;;;;;;12375178;28;20057;-37
2021/11/08 03:18:27;;;;;;;23.20;3.88;;;6.50;99.90;;;;;;12366403;28;20065;-37
2021/11/08 03:24:53;;;;;;;23.00;4.05;;;6.50;99.90;;;;;;12379217;28;20054;-38
2021/11/08 03:30:56;;;;;;;;;;;6.60;99.90;;;;;;12413072;28;20053;-37
2021/11/08 03:36:58;;;;;;;17.65;3.97;;;6.80;99.90;;;;;;12416598;28;19973;-41
2021/11/08 03:43:04;;;;;;;18.70;3.50;;;6.80;99.90;;;;;;12425061;28;20054;-41
2021/11/08 03:49:08;;;;;;;17.58;3.58;;;6.80;99.90;;;;;;12424008;28;20049;-37
2021/11/08 03:55:12;;;;;;;16.38;3.10;;;6.80;99.90;;;;;;12417782;28;20072;-36
2021/11/08 04:01:14;;;;;;;16.30;3.75;;;6.60;99.90;;;;;;12426247;28;20053;-42
2021/11/08 04:07:16;;;;;;;17.38;2.80;;;6.70;99.90;;;;;;12418354;28;20081;-41
2021/11/08 04:13:28;;;;;;;13.85;2.75;;;6.70;99.90;;;;;;12421500;28;20104;-42
2021/11/08 04:19:34;;;;;;;13.73;2.90;;;6.80;99.90;;;;;;12420706;28;20058;-42
2021/11/08 04:25:37;;;;;;;18.02;3.33;;;6.60;99.90;;;;;;12421873;28;20436;-42
2021/11/08 04:31:39;;;;;;;18.13;3.80;;;6.70;99.90;;;;;;12419178;28;20058;-36
2021/11/08 04:44:06;;;;;;;13.95;3.03;;;6.60;99.90;;;;;;12408897;28;20049;-41
2021/11/08 04:50:24;;;;;;;13.35;3.00;;;6.50;99.90;;;;;;12406664;28;20056;-42
2021/11/08 05:21:42;;;;;;;15.85;3.15;;;6.10;99.90;;;;;;12421167;28;20083;-41
2021/11/08 05:33:52;;;;;;;22.73;4.55;;;6.10;99.90;;;;;;12417939;28;20050;-41
2021/11/08 05:39:56;;;;;;;21.58;4.97;;;5.90;99.90;;;;;;12408083;28;20561;-37
2021/11/08 05:45:59;;;;;;;25.10;5.93;;;5.90;99.90;;;;;;12423434;28;20054;-42
2021/11/08 05:52:03;;;;;;;15.18;4.43;;;5.80;99.90;;;;;;12430766;28;20133;-37
2021/11/08 06:49:58;;;;;;;22.70;5.43;;;5.80;99.90;;;;;;12429050;28;20049;-37
2021/11/08 06:55:25;;;;;;;18.80;6.32;;;5.80;99.90;;;;;;12417151;28;20048;-36
2021/11/08 07:01:29;;;;;;;21.00;6.85;;;5.80;99.90;;;;;;12428129;28;20057;-36
2021/11/08 07:07:33;;;;;;;23.92;6.55;;;5.80;99.90;;;;;;12426951;28;20050;-41
2021/11/08 07:13:36;;;;;;;22.95;6.20;;;5.70;99.90;;;;;;12428460;28;20057;-37
2021/11/08 07:19:39;;;;;;;23.45;6.85;;;5.70;99.90;;;;;;12426854;28;20344;-38
2021/11/08 07:25:45;;;;;;;31.30;7.43;;;5.70;99.90;;;;;;12430782;28;20177;-41
2021/11/08 07:31:55;;;;;;;27.00;8.52;;;5.80;99.90;;;;;;12428139;28;20046;-41
2021/11/08 07:38:03;;;;;;;27.85;7.72;;;6.00;99.90;;;;;;12413171;28;20046;-40
2021/11/08 07:44:09;;;;;;;19.67;7.00;;;6.10;99.90;;;;;;12428527;28;20049;-41
2021/11/08 07:50:12;;;;;;;21.10;6.90;;;6.20;99.90;;;;;;12424762;28;20100;-37
2021/11/08 07:56:15;;;;;;;21.08;7.70;;;6.30;99.90;;;;;;12413075;28;20042;-41
2021/11/08 08:02:17;;;;;;;17.27;7.15;;;6.40;99.90;;;;;;12424702;28;20081;-38
2021/11/08 08:08:19;;;;;;;18.08;6.90;;;6.30;99.90;;;;;;12424380;28;20548;-41
2021/11/08 08:14:22;;;;;;;18.27;7.25;;;6.20;99.90;;;;;;12422264;28;20053;-36
2021/11/08 08:20:26;;;;;;;19.15;7.10;;;6.40;99.90;;;;;;12424222;28;20076;-42
2021/11/08 08:26:32;;;;;;;19.70;6.65;;;6.70;99.90;;;;;;12425692;28;20552;-37
2021/11/08 08:32:39;;;;;;;23.15;6.50;;;6.90;99.90;;;;;;12423777;28;20086;-37
2021/11/08 08:38:48;;;;;;;17.63;6.30;;;7.00;99.90;;;;;;12425870;28;20050;-41
2021/11/08 08:44:54;;;;;;;16.88;6.05;;;7.10;99.90;;;;;;12408986;28;20068;-38
2021/11/08 08:51:01;;;;;;;20.38;6.65;;;7.40;99.90;;;;;;12423345;28;20627;-37
2021/11/08 08:57:04;;;;;;;22.92;7.50;;;7.60;99.90;;;;;;12427067;28;20131;-36
2021/11/08 09:03:09;;;;;;;20.57;7.23;;;7.50;99.90;;;;;;12424721;28;20062;-37
2021/11/08 09:09:17;;;;;;;25.25;8.52;;;7.60;99.90;;;;;;12401568;28;20050;-37
2021/11/08 09:15:24;;;;;;;23.58;7.78;;;7.50;99.90;;;;;;12427058;28;20471;-41
2021/11/08 09:21:30;;;;;;;17.17;7.28;;;7.50;99.90;;;;;;12412038;28;20416;-38
2021/11/08 09:27:36;;;;;;;15.70;6.60;;;7.70;99.90;;;;;;12437976;28;20061;-37
2021/11/08 09:33:40;;;;;;;20.52;7.28;;;7.90;99.90;;;;;;12430196;28;20050;-37
2021/11/08 09:39:44;;;;;;;20.58;7.50;;;7.90;99.90;;;;;;12405431;28;20511;-42
2021/11/08 09:45:47;;;;;;;12.43;5.95;;;8.00;99.90;;;;;;12412814;28;20050;-41
2021/11/08 09:51:52;;;;;;;16.45;6.43;;;8.10;99.90;;;;;;12438020;28;20045;-41
2021/11/08 09:57:56;;;;;;;24.60;7.78;;;8.10;99.90;;;;;;12436392;28;20049;-41
2021/11/08 10:04:01;;;;;;;20.65;7.07;;;8.20;99.90;;;;;;12433611;28;20060;-37
2021/11/08 10:10:12;;;;;;;27.50;7.90;;;8.40;99.90;;;;;;12434681;28;20057;-42
2021/11/08 10:16:33;;;;;;;22.98;6.60;;;8.50;99.90;;;;;;12437959;28;20462;-42
2021/11/08 10:22:43;;;;;;;21.83;6.63;;;8.60;99.90;;;;;;12427993;28;20120;-41
2021/11/08 10:29:04;;;;;;;20.98;5.65;;;8.60;99.90;;;;;;12416109;28;20085;-41
2021/11/08 10:35:19;;;;;;;15.98;4.85;;;8.70;99.90;;;;;;12381934;28;20065;-38
2021/11/08 10:41:45;;;;;;;18.13;5.18;;;8.80;99.90;;;;;;12388106;28;20150;-41
2021/11/08 10:48:07;;;;;;;18.83;4.72;;;9.00;99.90;;;;;;12386605;28;20104;-42
2021/11/08 10:54:29;;;;;;;17.92;4.38;;;9.30;99.90;;;;;;12354762;28;20046;-42
2021/11/08 11:01:02;;;;;;;20.77;4.50;;;9.30;99.90;;;;;;12375749;28;22354;-37
2021/11/08 11:07:27;;;;;;;14.32;4.43;;;9.30;99.90;;;;;;12387130;28;20177;-38
2021/11/08 11:13:36;;;;;;;15.15;4.50;;;9.50;99.90;;;;;;12380163;28;20104;-37
2021/11/08 11:19:39;;;;;;;15.82;4.60;;;9.40;99.90;;;;;;12366036;28;20050;-37
2021/11/08 11:25:53;;;;;;;12.57;4.43;;;9.50;99.90;;;;;;12372016;28;20109;-41
2021/11/08 11:32:24;;;;;;;14.10;4.07;;;9.50;99.90;;;;;;12375895;28;20043;-42
2021/11/08 11:38:42;;;;;;;16.15;3.95;;;9.60;99.90;;;;;;12366663;28;20088;-41
2021/11/08 11:45:07;;;;;;;17.55;4.03;;;9.70;99.90;;;;;;12376780;28;20101;-42
2021/11/08 11:51:20;;;;;;;19.80;4.25;;;9.80;99.90;;;;;;12364193;28;20116;-37
2021/11/08 11:57:28;;;;;;;14.47;3.53;;;9.80;99.90;;;;;;12365051;28;20097;-38
2021/11/08 12:03:40;;;;;;;14.00;3.63;;;10.00;99.90;;;;;;12383656;28;20046;-37
2021/11/08 12:09:51;;;;;;;17.02;3.58;;;9.90;99.90;;;;;;12383168;28;20050;-38
2021/11/08 12:16:28;;;;;;;13.88;3.90;;;10.00;99.90;;;;;;12358950;28;21038;-38
2021/11/08 12:22:37;;;;;;;18.02;3.80;;;10.10;99.90;;;;;;12382103;28;20058;-42
2021/11/08 12:28:47;;;;;;;13.75;3.45;;;10.00;99.90;;;;;;12402262;28;20050;-42
2021/11/08 12:34:58;;;;;;;13.05;3.33;;;10.20;99.90;;;;;;12421509;28;20092;-38
2021/11/08 12:41:16;;;;;;;14.27;3.45;;;10.30;99.90;;;;;;12415146;28;20207;-37
2021/11/08 12:47:31;;;;;;;17.20;3.10;;;10.40;99.90;;;;;;12415276;28;20189;-41
2021/11/08 12:54:05;;;;;;;10.80;2.70;;;10.40;99.90;;;;;;12410798;28;20777;-42
2021/11/08 13:00:23;;;;;;;13.15;2.50;;;10.40;99.90;;;;;;12435928;28;20416;-38
2021/11/08 13:06:36;;;;;;;15.13;2.40;;;10.30;99.90;;;;;;12439538;28;20153;-42
2021/11/08 13:12:48;;;;;;;17.47;2.87;;;10.40;99.90;;;;;;12438870;28;20108;-41
2021/11/08 13:19:12;;;;;;;12.75;2.70;;;10.50;99.90;;;;;;12438285;28;20481;-42
2021/11/08 13:25:30;;;;;;;14.05;2.60;;;10.50;99.90;;;;;;12415061;28;20046;-42
2021/11/08 13:31:46;;;;;;;10.40;2.10;;;10.60;99.90;;;;;;12422588;28;20065;-38
2021/11/08 13:38:17;;;;;;;12.52;2.10;;;10.60;99.90;;;;;;12438310;28;20390;-37
2021/11/08 13:44:31;;;;;;;9.88;1.92;;;10.60;99.90;;;;;;12426949;28;20046;-37
2021/11/08 13:50:44;;;;;;;;;;;10.50;99.90;;;;;;12440229;28;20424;-42
2021/11/08 13:57:09;;;;;;;11.43;2.42;;;10.50;99.90;;;;;;12440851;28;19921;-43
2021/11/08 14:03:20;;;;;;;16.60;2.03;;;10.50;99.90;;;;;;12412260;28;20470;-38
2021/11/08 14:09:33;;;;;;;10.48;2.10;;;10.50;99.90;;;;;;12437356;28;20052;-37
2021/11/08 14:15:58;;;;;;;13.82;2.10;;;10.40;99.90;;;;;;12439947;28;20096;-38
2021/11/08 14:22:15;;;;;;;11.38;2.40;;;10.30;99.90;;;;;;12418076;28;20050;-41
2021/11/08 14:28:30;;;;;;;13.68;2.03;;;10.40;99.90;;;;;;12435880;28;20054;-41
2021/11/08 14:35:17;;;;;;;16.55;2.60;;;10.30;99.90;;;;;;12411694;28;20049;-41
2021/11/08 14:41:32;;;;;;;19.55;3.40;;;10.20;99.90;;;;;;12438832;28;20054;-38
2021/11/08 14:47:56;;;;;;;13.88;2.55;;;10.20;99.90;;;;;;12438088;28;20124;-37
2021/11/08 14:54:12;;;;;;;13.63;2.17;;;10.20;99.90;;;;;;12434328;28;20045;-38
2021/11/08 15:00:31;;;;;;;14.90;2.55;;;10.10;99.90;;;;;;12434459;28;20046;-37
2021/11/08 15:06:51;;;;;;;12.73;2.35;;;10.10;99.90;;;;;;12433532;28;20061;-42
2021/11/08 15:13:07;;;;;;;13.00;2.37;;;10.10;99.90;;;;;;12410466;28;20078;-41
2021/11/08 15:19:24;;;;;;;13.77;2.40;;;10.00;99.90;;;;;;12432036;28;20068;-41
2021/11/08 15:25:58;;;;;;;15.27;2.67;;;9.90;99.90;;;;;;12414274;28;20058;-38
2021/11/08 15:32:17;;;;;;;13.98;2.30;;;9.90;99.90;;;;;;12415606;28;20073;-37
2021/11/08 15:38:32;;;;;;;18.33;2.33;;;9.90;99.90;;;;;;12418368;28;20481;-38
2021/11/08 15:44:38;;;;;;;22.75;2.67;;;9.80;99.90;;;;;;12433121;28;20050;-37
2021/11/08 15:50:44;;;;;;;16.70;3.03;;;9.70;99.90;;;;;;12432812;28;20579;-38
2021/11/08 15:56:48;;;;;;;14.98;2.80;;;9.60;99.90;;;;;;12425758;28;20085;-43
2021/11/08 16:02:50;;;;;;;16.83;2.97;;;9.40;99.90;;;;;;12426540;28;20465;-38
2021/11/08 16:08:52;;;;;;;17.45;3.17;;;9.60;99.90;;;;;;12422562;28;20041;-41
2021/11/08 16:14:54;;;;;;;20.15;4.00;;;9.60;99.90;;;;;;12418372;28;20053;-38
2021/11/08 16:20:57;;;;;;;18.38;3.10;;;9.40;99.90;;;;;;12419791;28;20468;-43
2021/11/08 16:26:58;;;;;;;18.38;3.33;;;9.40;99.90;;;;;;12418722;28;20057;-42
2021/11/08 16:33:19;;;;;;;81.63;34.67;;;9.10;99.90;;;;;;12418191;28;20518;-41
2021/11/08 16:39:24;;;;;;;15.07;3.45;;;9.20;99.90;;;;;;12422023;28;20054;-41
2021/11/08 16:45:30;;;;;;;28.83;4.93;;;9.00;99.90;;;;;;12420257;28;20306;-37
2021/11/08 16:51:33;;;;;;;23.58;3.67;;;8.90;99.90;;;;;;12420063;28;20133;-41
2021/11/08 16:57:35;;;;;;;19.83;3.70;;;8.90;99.90;;;;;;12419710;28;20900;-37
2021/11/08 17:03:37;;;;;;;17.58;5.22;;;8.80;99.90;;;;;;12421533;28;20061;-37
2021/11/08 17:15:46;;;;;;;19.42;4.40;;;8.70;99.90;;;;;;12416662;28;20136;-38
2021/11/08 17:21:49;;;;;;;18.50;4.50;;;8.70;99.90;;;;;;12417609;28;20650;-38
2021/11/08 17:27:52;;;;;;;19.88;4.78;;;8.70;99.90;;;;;;12418279;28;20057;-41
2021/11/08 17:33:55;;;;;;;18.40;4.55;;;8.70;99.90;;;;;;12417132;28;20045;-41
2021/11/08 17:39:57;;;;;;;14.50;3.70;;;8.70;99.90;;;;;;12419754;28;20150;-38
2021/11/08 17:45:59;;;;;;;15.00;3.38;;;8.70;99.90;;;;;;12427497;28;20050;-42
2021/11/08 17:52:02;;;;;;;14.80;6.00;;;8.60;99.90;;;;;;12429302;28;20547;-42
2021/11/08 17:58:04;;;;;;;19.25;4.75;;;8.70;99.90;;;;;;12428327;28;20058;-42
2021/11/08 18:04:06;;;;;;;19.20;4.70;;;8.60;99.90;;;;;;12424709;28;20058;-37
2021/11/08 18:10:09;;;;;;;14.73;4.15;;;8.50;99.90;;;;;;12426895;28;20136;-41
2021/11/08 18:16:11;;;;;;;12.77;3.17;;;8.40;99.90;;;;;;12428619;28;20073;-37
2021/11/08 18:22:28;;;;;;;17.13;3.58;;;8.10;99.90;;;;;;12427834;28;20046;-37
2021/11/08 18:28:31;;;;;;;13.63;4.35;;;8.00;99.90;;;;;;12429762;28;20516;-37
2021/11/08 18:34:34;;;;;;;15.30;5.05;;;8.10;99.90;;;;;;12425071;28;20504;-37
2021/11/08 18:40:37;;;;;;;19.30;5.70;;;8.10;99.90;;;;;;12425805;28;20050;-43
2021/11/08 18:46:39;;;;;;;14.68;6.47;;;8.10;99.90;;;;;;12426978;28;20337;-40
2021/11/08 18:52:42;;;;;;;13.80;6.68;;;8.20;99.90;;;;;;12406629;28;20488;-37
2021/11/08 18:58:44;;;;;;;18.25;5.32;;;8.30;99.90;;;;;;12423029;28;20110;-37
2021/11/08 19:04:47;;;;;;;12.90;4.20;;;8.50;99.90;;;;;;12424727;28;20085;-41
2021/11/08 19:10:57;;;;;;;12.27;4.10;;;8.50;99.90;;;;;;12422358;28;20085;-42
2021/11/08 19:17:02;;;;;;;19.15;4.60;;;8.40;99.90;;;;;;12425694;28;20057;-36
2021/11/08 19:23:05;;;;;;;15.10;3.63;;;8.30;99.90;;;;;;12425285;28;20116;-41
2021/11/08 19:29:13;;;;;;;14.38;4.28;;;8.30;99.90;;;;;;12401845;28;20426;-38
2021/11/08 19:41:28;;;;;;;14.45;3.53;;;8.30;99.90;;;;;;12374784;28;20039;-41
2021/11/08 19:47:30;;;;;;;12.07;3.77;;;8.20;99.90;;;;;;12373782;28;20058;-36
2021/11/08 19:53:33;;;;;;;18.23;3.80;;;8.10;99.90;;;;;;12375304;28;20694;-37
2021/11/08 19:59:35;;;;;;;10.38;2.53;;;8.10;99.90;;;;;;12376599;28;20149;-42
2021/11/08 20:05:38;;;;;;;15.68;3.60;;;8.10;99.90;;;;;;12370326;28;20050;-41
2021/11/08 20:11:40;;;;;;;21.75;3.60;;;8.10;99.90;;;;;;12373040;28;20050;-39
2021/11/08 20:17:43;;;;;;;14.50;3.00;;;8.10;99.90;;;;;;12375540;28;20089;-40
2021/11/08 20:23:46;;;;;;;12.50;3.35;;;8.00;99.90;;;;;;12370824;28;20046;-41
2021/11/08 20:30:12;;;;;;;15.50;3.47;;;8.00;99.90;;;;;;12385221;28;20202;-37
2021/11/08 21:01:16;;;;;;;18.73;11.25;;;8.00;99.90;;;;;;12419232;28;20128;-42
2021/11/08 21:13:30;;;;;;;23.13;12.27;;;8.00;99.90;;;;;;12411743;28;20084;-42
2021/11/08 21:19:33;;;;;;;22.02;13.07;;;8.00;99.90;;;;;;12424362;28;20062;-37
2021/11/08 21:25:37;;;;;;;22.80;13.73;;;8.00;99.90;;;;;;12420363;28;20061;-41
2021/11/08 21:44:10;;;;;;;28.25;16.10;;;8.00;99.90;;;;;;12428528;28;20049;-41
2021/11/08 21:50:15;;;;;;;33.60;15.20;;;8.00;99.90;;;;;;12394694;28;20077;-41
2021/11/08 21:56:16;;;;;;;25.98;14.95;;;8.10;99.90;;;;;;12424452;28;20050;-38
2021/11/08 22:02:20;;;;;;;34.83;16.10;;;8.10;99.90;;;;;;12427345;28;20100;-37
2021/11/08 22:08:22;;;;;;;32.78;15.85;;;8.10;99.90;;;;;;12424075;28;20053;-38
2021/11/08 22:14:45;;;;;;;31.27;15.82;;;8.10;99.90;;;;;;12425533;28;20100;-41
2021/11/08 22:20:48;;;;;;;31.38;14.68;;;8.00;99.90;;;;;;12425409;28;20053;-38
2021/11/08 22:26:50;;;;;;;33.03;15.82;;;8.00;99.90;;;;;;12428647;28;20065;-42
2021/11/08 22:32:52;;;;;;;29.02;15.45;;;8.00;99.90;;;;;;12424817;28;20077;-41
2021/11/08 22:38:54;;;;;;;24.90;14.35;;;8.00;99.90;;;;;;12427730;28;20068;-37
2021/11/08 22:44:56;;;;;;;30.02;13.60;;;8.00;99.90;;;;;;12424035;28;20073;-37
2021/11/08 22:50:59;;;;;;;27.35;14.25;;;8.00;99.90;;;;;;12424026;28;20085;-41
2021/11/08 22:57:01;;;;;;;27.00;13.35;;;7.90;99.90;;;;;;12423583;28;20045;-41
2021/11/08 23:03:06;;;;;;;35.65;13.52;;;7.90;99.90;;;;;;12424629;28;20096;-37
2021/11/08 23:09:08;;;;;;;28.98;13.30;;;7.90;99.90;;;;;;12423058;28;20065;-41
2021/11/08 23:15:11;;;;;;;24.48;13.73;;;8.00;99.90;;;;;;12421637;28;20050;-42
2021/11/08 23:21:13;;;;;;;26.48;12.85;;;8.00;99.90;;;;;;12423438;28;20389;-43
2021/11/08 23:27:16;;;;;;;24.05;11.77;;;8.00;99.90;;;;;;12420861;28;20061;-41
2021/11/08 23:33:18;;;;;;;25.73;11.02;;;8.00;99.90;;;;;;12422888;28;20595;-37
2021/11/08 23:39:22;;;;;;;25.17;10.90;;;8.00;99.90;;;;;;12423715;28;20038;-38
2021/11/08 23:45:25;;;;;;;23.33;10.93;;;8.00;99.90;;;;;;12424356;28;20041;-42
2021/11/08 23:51:28;;;;;;;25.08;11.38;;;8.00;99.90;;;;;;12394047;28;20064;-42
2021/11/08 23:57:30;;;;;;;23.42;12.52;;;8.00;99.90;;;;;;12421566;28;20049;-37
